Time;durP1;ratioP1;P1;durP2;ratioP2;P2;SDS_P1;SDS_P2;PMS_P1;PMS_P2;Temp;Humidity;BMP_temperature;BMP_pressure;BME280_temperature;BME280_humidity;BME280_pressure;Samples;Min_cycle;Max_cycle;Signal;HPM_P1;HPM_P2
2024/02/26 00:00:46;;;;;;;1.05;0.50;;;;;;;28.56;nan;98633.94;7388340;19;20330;-83
2024/02/26 00:03:12;;;;;;;2.92;0.68;;;;;;;30.31;nan;98640.50;7388286;19;20009;-85
2024/02/26 00:05:39;;;;;;;0.40;0.40;;;;;;;29.56;nan;98642.38;7390650;19;20018;-87
2024/02/26 00:08:05;;;;;;;0.80;0.40;;;;;;;28.54;nan;98648.91;7387082;19;20033;-82
2024/02/26 00:10:31;;;;;;;14.25;1.27;;;;;;;28.27;nan;98657.34;7389940;19;20015;-83
2024/02/26 00:12:57;;;;;;;1.00;1.00;;;;;;;28.03;nan;98659.53;7387336;19;20017;-86
2024/02/26 00:15:24;;;;;;;0.90;0.60;;;;;;;28.11;nan;98665.72;7387618;19;20078;-83
2024/02/26 00:17:50;;;;;;;0.32;0.32;;;;;;;28.03;nan;98676.72;7390112;19;20496;-85
2024/02/26 00:20:16;;;;;;;0.40;0.40;;;;;;;27.70;nan;98673.25;7390537;19;20014;-84
2024/02/26 00:22:43;;;;;;;1.95;0.93;;;;;;;27.73;nan;98677.72;7388065;19;20022;-85
2024/02/26 00:25:09;;;;;;;0.73;0.73;;;;;;;27.78;nan;98673.75;7387786;19;20018;-85
2024/02/26 00:27:35;;;;;;;0.45;0.43;;;;;;;27.77;nan;98675.13;7389760;19;20018;-85
2024/02/26 00:30:01;;;;;;;0.75;0.73;;;;;;;27.48;nan;98686.22;7388456;19;20018;-84
2024/02/26 00:32:27;;;;;;;0.22;0.20;;;;;;;27.52;nan;98692.19;7389243;19;20508;-84
2024/02/26 00:34:53;;;;;;;0.30;0.30;;;;;;;27.61;nan;98689.19;7387251;19;20015;-84
2024/02/26 00:37:19;;;;;;;0.43;0.43;;;;;;;27.60;nan;98686.94;7390022;19;20013;-85
2024/02/26 00:39:46;;;;;;;1.30;0.65;;;;;;;27.59;nan;98694.06;7388440;19;20029;-85
2024/02/26 00:42:12;;;;;;;1.60;0.75;;;;;;;28.09;nan;98702.84;7389198;19;20023;-84
2024/02/26 00:44:38;;;;;;;0.60;0.60;;;;;;;28.27;nan;98706.03;7388258;19;20010;-83
2024/02/26 00:47:04;;;;;;;0.50;0.32;;;;;;;28.27;nan;98711.75;7388642;19;20027;-85
2024/02/26 00:49:30;;;;;;;1.15;0.63;;;;;;;28.38;nan;98705.25;7389764;19;20022;-85
2024/02/26 00:51:56;;;;;;;0.73;0.28;;;;;;;28.10;nan;98712.94;7388027;19;20010;-85
2024/02/26 00:54:23;;;;;;;1.52;0.65;;;;;;;28.05;nan;98724.75;7387592;19;20011;-84
2024/02/26 00:56:49;;;;;;;0.82;0.82;;;;;;;28.00;nan;98726.66;7390372;19;20022;-85
2024/02/26 00:59:15;;;;;;;1.10;0.35;;;;;;;28.13;nan;98731.69;7387715;19;20037;-84
2024/02/26 01:01:41;;;;;;;2.67;0.70;;;;;;;28.09;nan;98742.19;7386458;19;20474;-85
2024/02/26 01:04:07;;;;;;;0.20;0.20;;;;;;;28.44;nan;98746.44;7388829;19;20014;-84
2024/02/26 01:06:33;;;;;;;0.75;0.55;;;;;;;28.47;nan;98753.81;7387795;19;20033;-83
2024/02/26 01:08:59;;;;;;;0.65;0.43;;;;;;;28.20;nan;98753.59;7389285;19;20014;-85
2024/02/26 01:11:25;;;;;;;5.78;0.70;;;;;;;28.53;nan;98762.00;7389866;19;20510;-84
2024/02/26 01:13:56;;;;;;;0.73;0.47;;;;;;;28.24;nan;98768.16;7387217;19;20040;-84
2024/02/26 01:16:23;;;;;;;1.00;0.75;;;;;;;28.16;nan;98764.81;7387847;19;20020;-84
2024/02/26 01:18:49;;;;;;;0.63;0.63;;;;;;;28.27;nan;98769.03;7392618;19;20559;-84
2024/02/26 01:21:15;;;;;;;1.98;0.68;;;;;;;28.22;nan;98768.03;7387740;19;20019;-84
2024/02/26 01:23:42;;;;;;;10.15;0.85;;;;;;;28.31;nan;98772.13;7387345;19;20025;-83
2024/02/26 01:26:08;;;;;;;1.20;0.30;;;;;;;28.32;nan;98777.25;7388357;19;20007;-84
2024/02/26 01:28:34;;;;;;;0.73;0.65;;;;;;;28.32;nan;98777.25;7390241;19;20341;-84
2024/02/26 01:31:00;;;;;;;0.60;0.55;;;;;;;28.49;nan;98779.72;7388726;19;20372;-84
2024/02/26 01:33:26;;;;;;;5.97;1.05;;;;;;;28.47;nan;98782.44;7396050;19;20025;-85
2024/02/26 01:35:53;;;;;;;0.47;0.45;;;;;;;29.25;nan;98782.69;7393668;19;20343;-84
2024/02/26 01:38:22;;;;;;;0.30;0.30;;;;;;;29.62;nan;98797.69;7394749;19;20018;-83
2024/02/26 01:40:48;;;;;;;14.48;0.50;;;;;;;29.67;nan;98805.09;7398885;19;20082;-84
2024/02/26 01:43:14;;;;;;;0.40;0.28;;;;;;;29.73;nan;98808.34;7393935;19;20026;-84
2024/02/26 01:45:40;;;;;;;1.67;1.05;;;;;;;29.74;nan;98815.56;7392638;19;20110;-84
2024/02/26 01:48:06;;;;;;;1.65;0.55;;;;;;;29.74;nan;98804.09;7393488;19;20053;-84
2024/02/26 01:50:34;;;;;;;0.25;0.25;;;;;;;29.99;nan;98812.63;7395381;19;20638;-83
2024/02/26 01:53:01;;;;;;;0.20;0.20;;;;;;;29.66;nan;98820.84;7394585;19;20015;-84
2024/02/26 01:55:27;;;;;;;0.95;0.88;;;;;;;29.52;nan;98828.66;7392967;19;20337;-84
2024/02/26 01:57:54;;;;;;;1.13;0.47;;;;;;;29.58;nan;98837.63;7394761;19;20632;-84
2024/02/26 02:00:21;;;;;;;0.25;0.25;;;;;;;29.86;nan;98833.47;7395075;19;20022;-84
2024/02/26 02:02:48;;;;;;;0.60;0.60;;;;;;;29.90;nan;98832.94;7397949;19;20052;-84
2024/02/26 02:05:17;;;;;;;2.20;0.80;;;;;;;29.59;nan;98839.09;7393486;19;20467;-84
2024/02/26 02:07:44;;;;;;;0.28;0.28;;;;;;;29.48;nan;98851.41;7391792;19;20015;-83
2024/02/26 02:10:11;;;;;;;0.40;0.30;;;;;;;29.45;nan;98864.16;7393379;19;20527;-84
2024/02/26 02:12:39;;;;;;;0.70;0.70;;;;;;;29.40;nan;98858.81;7397950;19;20021;-84
2024/02/26 02:15:06;;;;;;;0.20;0.20;;;;;;;29.39;nan;98868.81;7390646;19;20480;-84
2024/02/26 02:17:32;;;;;;;1.55;0.38;;;;;;;29.27;nan;98871.72;7392830;19;20006;-84
2024/02/26 02:19:58;;;;;;;0.20;0.20;;;;;;;29.57;nan;98876.31;7395222;19;20015;-84
2024/02/26 02:22:24;;;;;;;0.20;0.20;;;;;;;29.70;nan;98878.47;7392260;19;20025;-84
2024/02/26 02:24:52;;;;;;;0.20;0.20;;;;;;;29.80;nan;98881.94;7393650;19;20018;-84
2024/02/26 02:27:20;;;;;;;0.20;0.20;;;;;;;29.85;nan;98889.41;7392635;19;20013;-84
2024/02/26 02:29:46;;;;;;;0.52;0.50;;;;;;;30.15;nan;98890.31;7393097;19;20401;-84
2024/02/26 02:32:14;;;;;;;0.30;0.22;;;;;;;30.05;nan;98889.00;7396344;19;20017;-83
2024/02/26 02:34:41;;;;;;;0.38;0.38;;;;;;;30.07;nan;98892.00;7390984;19;20011;-84
2024/02/26 02:37:07;;;;;;;0.20;0.20;;;;;;;30.07;nan;98898.47;7392519;19;20031;-85
2024/02/26 02:39:33;;;;;;;4.82;0.40;;;;;;;30.35;nan;98908.66;7394597;19;20475;-85
2024/02/26 02:41:59;;;;;;;0.55;0.55;;;;;;;30.32;nan;98909.19;7395162;19;20503;-85
2024/02/26 02:44:25;;;;;;;0.10;0.10;;;;;;;30.24;nan;98911.59;7391614;19;20518;-84
2024/02/26 02:46:53;;;;;;;0.77;0.60;;;;;;;30.35;nan;98916.53;7390913;19;20018;-84
2024/02/26 02:49:19;;;;;;;0.30;0.22;;;;;;;30.13;nan;98918.16;7394678;19;20025;-84
2024/02/26 02:51:45;;;;;;;0.20;0.20;;;;;;;30.30;nan;98920.56;7393388;19;20030;-84
2024/02/26 02:54:11;;;;;;;0.30;0.30;;;;;;;30.18;nan;98923.50;7391740;19;20105;-84
2024/02/26 02:56:37;;;;;;;0.20;0.20;;;;;;;30.10;nan;98930.94;7391544;19;20025;-84
2024/02/26 02:59:03;;;;;;;0.50;0.40;;;;;;;30.03;nan;98929.84;7391671;19;20037;-83
2024/02/26 03:01:29;;;;;;;0.50;0.50;;;;;;;30.04;nan;98936.34;7391712;19;20014;-84
2024/02/26 03:03:56;;;;;;;0.85;0.63;;;;;;;29.86;nan;98942.56;7392536;19;20045;-84
2024/02/26 03:06:22;;;;;;;0.52;0.20;;;;;;;29.93;nan;98935.78;7391245;19;20020;-84
2024/02/26 03:08:49;;;;;;;1.45;0.55;;;;;;;29.82;nan;98939.47;7392467;19;20018;-85
2024/02/26 03:11:15;;;;;;;0.20;0.15;;;;;;;29.66;nan;98950.00;7391389;19;20098;-85
2024/02/26 03:13:41;;;;;;;2.92;0.63;;;;;;;29.58;nan;98952.44;7390954;19;20380;-84
2024/02/26 03:16:08;;;;;;;0.10;0.10;;;;;;;29.48;nan;98962.56;7391519;19;20015;-84
2024/02/26 03:18:34;;;;;;;4.43;0.45;;;;;;;29.28;nan;98962.16;7393029;19;20011;-85
2024/02/26 03:21:00;;;;;;;0.20;0.20;;;;;;;29.44;nan;98970.94;7395151;19;20124;-84
2024/02/26 03:23:26;;;;;;;0.57;0.57;;;;;;;30.22;nan;98963.19;7395965;19;20510;-85
2024/02/26 03:25:52;;;;;;;0.45;0.45;;;;;;;31.03;nan;98963.31;7390927;19;20022;-83
2024/02/26 03:28:19;;;;;;;0.22;0.22;;;;;;;31.25;nan;98964.44;7391761;19;20019;-84
2024/02/26 03:30:45;;;;;;;0.85;0.57;;;;;;;30.34;nan;98984.00;7392993;19;20044;-84
2024/02/26 03:33:11;;;;;;;0.90;0.28;;;;;;;29.72;nan;98981.16;7395874;19;20090;-84
2024/02/26 03:35:37;;;;;;;0.25;0.25;;;;;;;29.39;nan;98987.16;7388466;19;20010;-84
2024/02/26 03:38:03;;;;;;;0.20;0.20;;;;;;;29.19;nan;98994.59;7389462;19;20019;-84
2024/02/26 03:40:29;;;;;;;0.30;0.30;;;;;;;29.19;nan;99003.91;7389424;19;20014;-84
2024/02/26 03:42:57;;;;;;;0.47;0.30;;;;;;;29.20;nan;99004.66;7390137;19;20021;-83
2024/02/26 03:45:23;;;;;;;0.30;0.30;;;;;;;28.96;nan;99003.94;7393587;19;20026;-84
2024/02/26 03:47:49;;;;;;;0.47;0.32;;;;;;;28.96;nan;99003.94;7389021;19;20429;-84
2024/02/26 03:50:16;;;;;;;0.10;0.10;;;;;;;28.91;nan;99007.19;7393337;19;20536;-84
2024/02/26 03:52:42;;;;;;;0.20;0.20;;;;;;;28.87;nan;99018.41;7390303;19;20021;-84
2024/02/26 03:55:09;;;;;;;0.30;0.30;;;;;;;28.86;nan;99011.16;7390307;19;20464;-84
2024/02/26 03:57:36;;;;;;;0.10;0.10;;;;;;;28.74;nan;99019.75;7388534;19;20022;-84
2024/02/26 04:00:03;;;;;;;0.10;0.10;;;;;;;25.92;nan;99034.09;7391662;19;20042;-84
2024/02/26 04:02:36;;;;;;;0.32;0.20;;;;;;;25.45;nan;99039.19;7389549;19;20025;-84
2024/02/26 04:05:03;;;;;;;0.10;0.10;;;;;;;24.93;nan;99034.41;7389302;19;20029;-84
2024/02/26 04:07:29;;;;;;;0.32;0.13;;;;;;;24.58;nan;99040.22;7391664;19;20037;-84
2024/02/26 04:09:55;;;;;;;0.60;0.60;;;;;;;24.68;nan;99037.44;7389403;19;20045;-84
2024/02/26 04:12:21;;;;;;;0.30;0.20;;;;;;;26.70;nan;99051.22;7389298;19;20344;-84
2024/02/26 04:14:47;;;;;;;1.55;0.45;;;;;;;27.66;nan;99047.81;7387707;19;20019;-84
2024/02/26 04:17:13;;;;;;;0.32;0.32;;;;;;;27.80;nan;99054.50;7389448;19;20019;-84
2024/02/26 04:19:40;;;;;;;0.40;0.40;;;;;;;28.02;nan;99064.56;7391819;19;20007;-84
2024/02/26 04:22:06;;;;;;;0.10;0.10;;;;;;;27.93;nan;99073.97;7389473;19;20030;-84
2024/02/26 04:24:32;;;;;;;0.30;0.30;;;;;;;27.86;nan;99074.91;7388084;19;20500;-84
2024/02/26 04:26:58;;;;;;;0.50;0.47;;;;;;;27.72;nan;99082.56;7388262;19;20367;-84
2024/02/26 04:29:24;;;;;;;0.20;0.20;;;;;;;27.95;nan;99085.53;7388671;19;20046;-84
2024/02/26 04:31:50;;;;;;;0.13;0.13;;;;;;;27.82;nan;99093.94;7393861;19;20023;-85
2024/02/26 04:34:16;;;;;;;0.65;0.30;;;;;;;27.91;nan;99093.88;7392790;19;20019;-84
2024/02/26 04:36:42;;;;;;;0.95;0.95;;;;;;;27.78;nan;99097.28;7390229;19;20019;-84
2024/02/26 04:39:09;;;;;;;0.10;0.10;;;;;;;27.73;nan;99109.81;7389020;19;20015;-84
2024/02/26 04:41:36;;;;;;;16.95;1.20;;;;;;;27.72;nan;99111.19;7387671;19;20037;-84
2024/02/26 04:44:02;;;;;;;0.73;0.47;;;;;;;27.81;nan;99113.22;7389077;19;20038;-85
2024/02/26 04:46:28;;;;;;;0.20;0.20;;;;;;;27.89;nan;99121.59;7389468;19;20066;-85
2024/02/26 04:48:54;;;;;;;0.30;0.30;;;;;;;27.88;nan;99135.16;7390509;19;20471;-84
2024/02/26 04:51:20;;;;;;;0.30;0.30;;;;;;;27.98;nan;99144.44;7388176;19;20015;-84
2024/02/26 04:53:46;;;;;;;0.38;0.38;;;;;;;27.36;nan;99146.63;7387651;19;20030;-85
2024/02/26 04:56:13;;;;;;;0.32;0.32;;;;;;;25.36;nan;99156.03;7390587;19;20014;-85
2024/02/26 04:58:39;;;;;;;4.85;0.40;;;;;;;27.65;nan;99152.94;7389218;19;20015;-85
2024/02/26 05:01:05;;;;;;;0.20;0.20;;;;;;;28.02;nan;99156.19;7387895;19;20018;-85
2024/02/26 05:03:31;;;;;;;1.20;0.90;;;;;;;28.07;nan;99155.06;7393797;19;20022;-84
2024/02/26 05:05:58;;;;;;;4.82;0.85;;;;;;;28.24;nan;99159.78;7389020;19;20019;-84
2024/02/26 05:08:24;;;;;;;3.40;0.55;;;;;;;28.32;nan;99166.03;7396842;19;20041;-84
2024/02/26 05:10:50;;;;;;;0.10;0.10;;;;;;;28.36;nan;99161.31;7395305;19;20006;-84
2024/02/26 05:13:17;;;;;;;1.73;0.93;;;;;;;28.31;nan;99176.72;7400804;19;20475;-85
2024/02/26 05:15:46;;;;;;;1.75;0.88;;;;;;;24.25;nan;99194.78;7391931;19;20023;-85
2024/02/26 05:18:12;;;;;;;0.20;0.20;;;;;;;23.21;nan;99204.44;7393819;19;20476;-84
2024/02/26 05:20:38;;;;;;;2.60;0.50;;;;;;;22.96;nan;99215.75;7400838;19;20995;-84
2024/02/26 05:23:05;;;;;;;0.20;0.20;;;;;;;22.56;nan;99218.59;7400118;19;20085;-84
2024/02/26 05:25:31;;;;;;;0.10;0.10;;;;;;;22.35;nan;99208.84;7392765;19;20018;-84
2024/02/26 05:27:57;;;;;;;0.22;0.22;;;;;;;22.10;nan;99222.91;7393797;19;20006;-84
2024/02/26 05:30:23;;;;;;;0.20;0.20;;;;;;;21.56;nan;99229.91;7395774;19;20018;-85
2024/02/26 05:32:49;;;;;;;0.20;0.20;;;;;;;24.17;nan;99225.44;7396818;19;20030;-84
2024/02/26 05:35:15;;;;;;;0.52;0.50;;;;;;;22.71;nan;99240.50;7392396;19;20019;-84
2024/02/26 05:37:41;;;;;;;0.32;0.28;;;;;;;22.21;nan;99244.41;7395187;19;20023;-84
2024/02/26 05:40:08;;;;;;;0.52;0.40;;;;;;;22.18;nan;99246.31;7395153;19;20014;-85
2024/02/26 05:42:34;;;;;;;0.43;0.43;;;;;;;21.46;nan;99256.56;7398384;19;20292;-85
2024/02/26 05:45:05;;;;;;;0.10;0.10;;;;;;;21.61;nan;99262.22;7394777;19;20015;-85
2024/02/26 05:47:35;;;;;;;0.22;0.22;;;;;;;21.64;nan;99261.09;7392334;19;20078;-84
2024/02/26 05:50:02;;;;;;;0.30;0.30;;;;;;;19.68;nan;99264.53;7397038;19;20467;-84
2024/02/26 05:52:31;;;;;;;0.50;0.50;;;;;;;20.76;nan;99271.09;7396300;19;20039;-83
2024/02/26 05:54:57;;;;;;;0.20;0.20;;;;;;;20.71;nan;99280.50;7392821;19;20510;-85
2024/02/26 05:57:24;;;;;;;1.08;0.63;;;;;;;21.13;nan;99281.81;7394327;19;20022;-84
2024/02/26 05:59:50;;;;;;;0.20;0.20;;;;;;;22.63;nan;99278.75;7393695;19;20018;-84
2024/02/26 06:02:16;;;;;;;0.20;0.20;;;;;;;24.29;nan;99280.50;7393811;19;20021;-84
2024/02/26 06:04:42;;;;;;;0.28;0.22;;;;;;;24.80;nan;99286.22;7396616;19;20041;-85
2024/02/26 06:07:09;;;;;;;0.20;0.20;;;;;;;24.98;nan;99296.25;7393525;19;20014;-85
2024/02/26 06:09:35;;;;;;;0.30;0.20;;;;;;;24.95;nan;99288.88;7395424;19;20022;-85
2024/02/26 06:12:01;;;;;;;0.52;0.30;;;;;;;24.96;nan;99292.47;7395772;19;20081;-85
2024/02/26 06:14:27;;;;;;;0.10;0.10;;;;;;;25.00;nan;99312.75;7393491;19;20018;-85
2024/02/26 06:16:53;;;;;;;0.95;0.95;;;;;;;25.05;nan;99301.09;7398088;19;20015;-85
2024/02/26 06:19:19;;;;;;;0.22;0.22;;;;;;;25.10;nan;99305.03;7392343;19;20010;-86
2024/02/26 06:21:45;;;;;;;0.60;0.55;;;;;;;25.35;nan;99312.09;7394044;19;20049;-85
2024/02/26 06:24:11;;;;;;;0.35;0.35;;;;;;;25.34;nan;99316.28;7394189;19;20121;-85
2024/02/26 06:26:37;;;;;;;0.20;0.20;;;;;;;27.37;nan;99316.13;7392694;19;20015;-85
2024/02/26 06:29:03;;;;;;;0.20;0.20;;;;;;;26.83;nan;99319.31;7394146;19;20074;-86
2024/02/26 06:31:29;;;;;;;6.03;1.15;;;;;;;26.13;nan;99319.66;7392879;19;20025;-85
2024/02/26 06:33:56;;;;;;;16.25;0.95;;;;;;;26.16;nan;99319.22;7396353;19;20078;-86
2024/02/26 06:36:22;;;;;;;0.10;0.10;;;;;;;26.42;nan;99328.31;7394892;19;20050;-86
2024/02/26 06:38:49;;;;;;;1.17;0.47;;;;;;;26.37;nan;99327.25;7399089;19;20566;-86
2024/02/26 06:41:15;;;;;;;1.63;0.63;;;;;;;26.30;nan;99333.81;7393727;19;20582;-85
2024/02/26 06:43:41;;;;;;;2.08;0.85;;;;;;;26.23;nan;99331.84;7394325;19;20037;-85
2024/02/26 06:46:07;;;;;;;1.17;0.65;;;;;;;26.23;nan;99343.28;7394022;19;20015;-86
2024/02/26 06:48:33;;;;;;;9.68;0.75;;;;;;;26.18;nan;99344.34;7396855;19;20025;-86
2024/02/26 06:50:59;;;;;;;0.40;0.38;;;;;;;26.19;nan;99352.28;7397567;19;20035;-86
2024/02/26 06:53:25;;;;;;;0.15;0.15;;;;;;;26.73;nan;99358.56;7394394;19;20018;-86
2024/02/26 06:55:51;;;;;;;0.30;0.30;;;;;;;26.52;nan;99375.50;7392967;19;20109;-85
2024/02/26 06:58:18;;;;;;;0.20;0.20;;;;;;;26.78;nan;99371.06;7396532;19;20061;-86
2024/02/26 07:00:44;;;;;;;0.68;0.57;;;;;;;27.31;nan;99372.88;7393982;19;20017;-86
2024/02/26 07:03:10;;;;;;;1.25;0.75;;;;;;;27.32;nan;99382.94;7392189;19;20018;-86
2024/02/26 07:05:36;;;;;;;0.55;0.30;;;;;;;27.62;nan;99385.91;7389979;19;20021;-86
2024/02/26 07:08:02;;;;;;;0.28;0.28;;;;;;;27.59;nan;99389.97;7390063;19;20509;-86
2024/02/26 07:10:28;;;;;;;0.35;0.28;;;;;;;27.28;nan;99386.25;7395050;19;20074;-86
2024/02/26 07:12:54;;;;;;;0.30;0.30;;;;;;;26.66;nan;99390.84;7393011;19;20010;-86
2024/02/26 07:15:21;;;;;;;0.68;0.25;;;;;;;26.07;nan;99401.94;7392016;19;20085;-86
2024/02/26 07:17:48;;;;;;;0.10;0.10;;;;;;;26.07;nan;99414.13;7393439;19;20035;-86
2024/02/26 07:20:15;;;;;;;0.30;0.20;;;;;;;26.22;nan;99402.50;7394295;19;20404;-85
2024/02/26 07:22:42;;;;;;;0.20;0.20;;;;;;;26.36;nan;99405.69;7396834;19;20018;-86
2024/02/26 07:25:11;;;;;;;0.95;0.20;;;;;;;26.18;nan;99415.69;7390458;19;20028;-85
2024/02/26 07:27:37;;;;;;;0.20;0.20;;;;;;;26.37;nan;99412.91;7390334;19;20018;-86
2024/02/26 07:30:04;;;;;;;0.28;0.28;;;;;;;27.59;nan;99417.88;7390641;19;20015;-86
2024/02/26 07:32:30;;;;;;;0.22;0.22;;;;;;;27.92;nan;99426.66;7393551;19;20151;-86
2024/02/26 07:34:56;;;;;;;0.50;0.50;;;;;;;28.04;nan;99434.03;7390148;19;20011;-84
2024/02/26 07:37:22;;;;;;;0.22;0.22;;;;;;;28.06;nan;99439.91;7392607;19;20033;-85
2024/02/26 07:39:49;;;;;;;0.85;0.38;;;;;;;28.05;nan;99441.25;7390869;19;20024;-86
2024/02/26 07:42:15;;;;;;;0.20;0.20;;;;;;;28.74;nan;99446.09;7392779;19;20112;-85
2024/02/26 07:44:42;;;;;;;0.30;0.30;;;;;;;29.34;nan;99450.22;7389447;19;20021;-85
2024/02/26 07:47:09;;;;;;;0.43;0.38;;;;;;;30.04;nan;99453.34;7391113;19;20031;-85
2024/02/26 07:49:35;;;;;;;0.30;0.30;;;;;;;30.36;nan;99441.03;7393891;19;20038;-86
2024/02/26 07:52:02;;;;;;;0.32;0.17;;;;;;;30.55;nan;99452.25;7393807;19;20022;-86
2024/02/26 07:54:28;;;;;;;0.20;0.20;;;;;;;30.71;nan;99459.75;7389412;19;20342;-86
2024/02/26 07:56:54;;;;;;;4.68;0.47;;;;;;;30.25;nan;99468.34;7391276;19;20024;-86
2024/02/26 07:59:20;;;;;;;0.90;0.28;;;;;;;30.15;nan;99458.34;7392802;19;20022;-85
2024/02/26 08:01:52;;;;;;;0.98;0.30;;;;;;;30.13;nan;99458.94;7393284;19;20017;-86
2024/02/26 08:04:18;;;;;;;1.10;0.55;;;;;;;29.97;nan;99469.44;7391470;19;20018;-86
2024/02/26 08:06:44;;;;;;;0.10;0.10;;;;;;;29.95;nan;99493.00;7390145;19;20121;-85
2024/02/26 08:09:12;;;;;;;0.40;0.40;;;;;;;29.92;nan;99488.53;7390975;19;20549;-85
2024/02/26 08:11:38;;;;;;;1.17;0.63;;;;;;;29.94;nan;99488.66;7392549;19;20503;-85
2024/02/26 08:14:05;;;;;;;3.38;0.43;;;;;;;29.75;nan;99499.56;7391891;19;20475;-85
2024/02/26 08:16:31;;;;;;;0.40;0.40;;;;;;;29.73;nan;99494.44;7390983;19;20029;-83
2024/02/26 08:18:57;;;;;;;0.32;0.32;;;;;;;29.80;nan;99507.81;7389546;19;20018;-85
2024/02/26 08:21:23;;;;;;;1.85;0.73;;;;;;;29.61;nan;99507.97;7390299;19;20027;-85
2024/02/26 08:23:50;;;;;;;0.28;0.28;;;;;;;29.84;nan;99513.09;7391410;19;20018;-85
2024/02/26 08:26:16;;;;;;;0.30;0.30;;;;;;;29.68;nan;99512.75;7388623;19;20007;-85
2024/02/26 08:28:42;;;;;;;0.55;0.55;;;;;;;29.30;nan;99523.78;7391816;19;20022;-85
2024/02/26 08:31:08;;;;;;;0.20;0.20;;;;;;;28.97;nan;99526.53;7390401;19;20010;-85
2024/02/26 08:33:35;;;;;;;0.20;0.20;;;;;;;28.81;nan;99534.75;7393022;19;20928;-84
2024/02/26 08:36:05;;;;;;;0.10;0.10;;;;;;;28.80;nan;99536.13;7389627;19;20553;-85
2024/02/26 08:38:31;;;;;;;0.20;0.20;;;;;;;28.82;nan;99544.88;7391068;19;20033;-84
2024/02/26 08:40:57;;;;;;;2.47;0.55;;;;;;;29.60;nan;99543.03;7389991;19;20074;-85
2024/02/26 08:43:23;;;;;;;1.17;0.55;;;;;;;29.95;nan;99547.56;7395190;19;20070;-85
2024/02/26 08:45:49;;;;;;;0.10;0.10;;;;;;;30.37;nan;99545.97;7393884;19;20051;-85
2024/02/26 08:48:16;;;;;;;0.20;0.20;;;;;;;30.69;nan;99545.13;7392902;19;20805;-85
2024/02/26 08:50:42;;;;;;;0.20;0.20;;;;;;;30.94;nan;99551.03;7401284;19;20014;-85
2024/02/26 08:53:09;;;;;;;0.20;0.20;;;;;;;31.43;nan;99566.25;7397941;19;20015;-85
2024/02/26 08:55:35;;;;;;;0.20;0.20;;;;;;;31.28;nan;99561.00;7394892;19;20421;-85
2024/02/26 08:58:01;;;;;;;0.30;0.30;;;;;;;31.45;nan;99568.53;7396976;19;20022;-85
2024/02/26 09:00:27;;;;;;;0.60;0.50;;;;;;;31.48;nan;99576.63;7399581;19;20113;-84
2024/02/26 09:02:53;;;;;;;0.30;0.30;;;;;;;31.84;nan;99572.25;7395980;19;20023;-85
2024/02/26 09:05:19;;;;;;;0.10;0.10;;;;;;;31.77;nan;99579.06;7393945;19;20029;-85
2024/02/26 09:07:46;;;;;;;0.20;0.20;;;;;;;31.89;nan;99571.13;7397271;19;20021;-85
2024/02/26 09:10:12;;;;;;;0.30;0.30;;;;;;;32.40;nan;99578.38;7396033;19;20038;-85
2024/02/26 09:12:39;;;;;;;0.10;0.10;;;;;;;32.60;nan;99578.78;7395992;19;20493;-84
2024/02/26 09:15:07;;;;;;;0.30;0.30;;;;;;;32.79;nan;99587.81;7395827;19;20098;-85
2024/02/26 09:17:33;;;;;;;0.22;0.22;;;;;;;33.08;nan;99581.47;7399646;19;20490;-85
2024/02/26 09:19:59;;;;;;;0.20;0.20;;;;;;;33.07;nan;99585.00;7398788;19;20018;-84
2024/02/26 09:22:25;;;;;;;0.20;0.20;;;;;;;33.06;nan;99606.56;7396505;19;20011;-84
2024/02/26 09:24:53;;;;;;;0.75;0.40;;;;;;;32.94;nan;99605.91;7392858;19;20026;-84
2024/02/26 09:27:19;;;;;;;0.30;0.30;;;;;;;32.72;nan;99594.66;7391587;19;20034;-83
2024/02/26 09:29:46;;;;;;;0.85;0.50;;;;;;;32.84;nan;99615.50;7398713;19;20010;-82
2024/02/26 09:32:13;;;;;;;0.90;0.45;;;;;;;33.21;nan;99618.25;7394798;19;20014;-82
2024/02/26 09:34:42;;;;;;;0.20;0.20;;;;;;;33.14;nan;99625.06;7392369;19;20014;-83
2024/02/26 09:37:08;;;;;;;0.25;0.20;;;;;;;33.10;nan;99639.28;7395969;19;20043;-83
2024/02/26 09:39:34;;;;;;;0.10;0.10;;;;;;;33.05;nan;99639.72;7395902;19;20022;-82
2024/02/26 09:42:04;;;;;;;0.43;0.20;;;;;;;32.94;nan;99652.81;7399040;19;20014;-83
2024/02/26 09:44:35;;;;;;;0.10;0.10;;;;;;;32.88;nan;99640.94;7393791;19;20496;-82
2024/02/26 09:47:01;;;;;;;0.15;0.10;;;;;;;33.47;nan;99644.88;7394244;19;20021;-83
2024/02/26 09:49:27;;;;;;;3.35;0.40;;;;;;;33.58;nan;99655.59;7397777;19;20018;-83
2024/02/26 09:51:55;;;;;;;0.20;0.10;;;;;;;33.68;nan;99653.22;7396293;19;20109;-83
2024/02/26 09:54:21;;;;;;;0.10;0.10;;;;;;;33.78;nan;99650.88;7393729;19;20022;-83
2024/02/26 09:56:50;;;;;;;0.20;0.20;;;;;;;34.01;nan;99653.53;7394343;19;20089;-83
2024/02/26 09:59:17;;;;;;;0.10;0.10;;;;;;;34.56;nan;99662.78;7394656;19;20476;-84
2024/02/26 10:01:44;;;;;;;0.10;0.10;;;;;;;34.56;nan;99664.94;7391152;19;20023;-81
2024/02/26 10:04:11;;;;;;;2.08;0.73;;;;;;;34.59;nan;99666.53;7392180;19;20010;-81
2024/02/26 10:06:38;;;;;;;0.10;0.10;;;;;;;34.62;nan;99671.00;7393533;19;20504;-82
2024/02/26 10:09:07;;;;;;;0.10;0.10;;;;;;;35.48;nan;99654.06;7392486;19;20017;-86
2024/02/26 10:11:33;;;;;;;0.20;0.20;;;;;;;35.80;nan;99655.53;7396655;19;20018;-86
2024/02/26 10:13:59;;;;;;;0.10;0.10;;;;;;;35.95;nan;99653.97;7395536;19;20018;-87
2024/02/26 10:16:26;;;;;;;1.30;0.45;;;;;;;36.07;nan;99654.50;7395366;19;20022;-84
2024/02/26 10:18:56;;;;;;;0.10;0.10;;;;;;;35.99;nan;99659.97;7393319;19;20468;-86
2024/02/26 10:21:22;;;;;;;0.10;0.10;;;;;;;35.87;nan;99671.00;7395048;19;20026;-84
2024/02/26 10:23:50;;;;;;;0.20;0.20;;;;;;;35.69;nan;99686.19;7392633;19;20500;-82
2024/02/26 10:26:17;;;;;;;0.10;0.10;;;;;;;35.51;nan;99681.75;7393394;19;20039;-85
2024/02/26 10:28:44;;;;;;;0.10;0.10;;;;;;;35.63;nan;99683.03;7395794;19;20114;-86
2024/02/26 10:31:11;;;;;;;0.10;0.10;;;;;;;35.57;nan;99685.66;7395660;19;20425;-84
2024/02/26 10:33:38;;;;;;;0.10;0.10;;;;;;;35.84;nan;99696.28;7397649;19;20029;-85
2024/02/26 10:36:06;;;;;;;0.15;0.15;;;;;;;36.13;nan;99698.25;7394773;19;20006;-85
2024/02/26 10:38:33;;;;;;;4.22;0.22;;;;;;;36.00;nan;99697.00;7394173;19;20023;-86
2024/02/26 10:40:59;;;;;;;0.10;0.10;;;;;;;36.09;nan;99695.19;7397415;19;20022;-86
2024/02/26 10:43:25;;;;;;;0.10;0.10;;;;;;;36.01;nan;99697.75;7393588;19;20082;-86
2024/02/26 10:45:51;;;;;;;0.40;0.30;;;;;;;36.14;nan;99699.75;7396312;19;20701;-87
2024/02/26 10:48:18;;;;;;;4.70;0.57;;;;;;;35.67;nan;99694.06;7392016;19;20019;-85
2024/02/26 10:50:44;;;;;;;0.10;0.10;;;;;;;35.45;nan;99695.94;7393166;19;20036;-85
2024/02/26 10:53:16;;;;;;;0.10;0.10;;;;;;;35.19;nan;99698.38;7396020;19;20014;-86
2024/02/26 10:55:48;;;;;;;0.10;0.10;;;;;;;35.38;nan;99703.59;7391727;19;20022;-86
2024/02/26 10:58:16;;;;;;;0.30;0.30;;;;;;;35.46;nan;99712.66;7392082;19;20014;-82
2024/02/26 11:00:43;;;;;;;0.28;0.28;;;;;;;35.68;nan;99710.03;7393384;19;20019;-84
2024/02/26 11:03:11;;;;;;;0.10;0.10;;;;;;;35.75;nan;99718.38;7391665;19;20082;-87
2024/02/26 11:05:38;;;;;;;0.10;0.10;;;;;;;35.78;nan;99714.13;7390500;19;20014;-86
2024/02/26 11:08:05;;;;;;;0.17;0.17;;;;;;;35.73;nan;99723.31;7390098;19;20014;-86
2024/02/26 11:10:32;;;;;;;0.10;0.10;;;;;;;35.54;nan;99732.59;7397104;19;20472;-84
2024/02/26 11:13:01;;;;;;;0.10;0.10;;;;;;;35.35;nan;99728.06;7392219;19;20037;-82
2024/02/26 11:15:29;;;;;;;0.20;0.20;;;;;;;35.43;nan;99733.50;7396008;19;20033;-87
2024/02/26 11:17:56;;;;;;;0.10;0.03;;;;;;;35.50;nan;99743.97;7394440;19;20029;-83
2024/02/26 11:20:23;;;;;;;0.10;0.10;;;;;;;35.64;nan;99748.28;7390525;19;20019;-88
2024/02/26 11:22:49;;;;;;;0.10;0.10;;;;;;;35.50;nan;99752.66;7393368;19;20045;-88
2024/02/26 11:25:16;;;;;;;0.45;0.10;;;;;;;35.49;nan;99756.97;7392374;19;20028;-89
2024/02/26 11:27:47;;;;;;;0.10;0.10;;;;;;;36.00;nan;99754.22;7395553;19;20014;-88
2024/02/26 11:30:17;;;;;;;0.35;0.25;;;;;;;36.42;nan;99745.25;7394266;19;20019;-88
2024/02/26 11:32:47;;;;;;;0.57;0.30;;;;;;;36.55;nan;99742.84;7395752;19;20316;-88
2024/02/26 11:35:15;;;;;;;0.17;0.17;;;;;;;36.72;nan;99750.81;7392744;19;20353;-88
2024/02/26 11:37:50;;;;;;;0.10;0.10;;;;;;;36.25;nan;99754.66;7394452;19;20493;-88
2024/02/26 11:40:17;;;;;;;0.10;0.10;;;;;;;36.21;nan;99756.63;7392238;19;20023;-89
2024/02/26 11:42:47;;;;;;;3.30;0.57;;;;;;;36.91;nan;99767.56;7393496;19;20011;-88
2024/02/26 11:45:49;;;;;;;0.10;0.10;;;;;;;36.95;nan;99759.06;7392760;19;20019;-88
2024/02/26 11:48:19;;;;;;;0.10;0.10;;;;;;;36.88;nan;99772.56;7390974;19;20032;-88